sensor_id;sensor_type;location;lat;lon;timestamp;pressure;altitude;pressure_sealevel;temperature;humidity
21449;BME280;10885;52.830;13.788;2023-01-09T06:02:02;99396.66;;;3.71;93.52
21449;BME280;10885;52.830;13.788;2023-01-09T06:07:23;99389.25;;;3.74;92.93
21449;BME280;10885;52.830;13.788;2023-01-09T06:12:49;99388.69;;;3.78;91.83
21449;BME280;10885;52.830;13.788;2023-01-09T06:18:11;99383.22;;;3.72;90.78
21449;BME280;10885;52.830;13.788;2023-01-09T06:23:32;99386.16;;;3.78;91.16
21449;BME280;10885;52.830;13.788;2023-01-09T06:28:53;99386.34;;;3.82;91.19
21449;BME280;10885;52.830;13.788;2023-01-09T06:34:15;99388.50;;;3.89;91.83
21449;BME280;10885;52.830;13.788;2023-01-09T06:39:36;99390.16;;;3.88;91.62
21449;BME280;10885;52.830;13.788;2023-01-09T06:44:57;99380.88;;;3.89;91.36
21449;BME280;10885;52.830;13.788;2023-01-09T06:50:18;99388.13;;;3.96;91.79
21449;BME280;10885;52.830;13.788;2023-01-09T06:55:38;99383.22;;;3.99;91.53
21449;BME280;10885;52.830;13.788;2023-01-09T07:01:00;99382.34;;;3.98;90.98
21449;BME280;10885;52.830;13.788;2023-01-09T07:06:21;99365.09;;;4.06;91.22
21449;BME280;10885;52.830;13.788;2023-01-09T07:11:42;99367.81;;;4.09;91.21
21449;BME280;10885;52.830;13.788;2023-01-09T07:17:03;99368.13;;;4.14;92.17
21449;BME280;10885;52.830;13.788;2023-01-09T07:22:24;99351.34;;;4.16;91.15
21449;BME280;10885;52.830;13.788;2023-01-09T07:27:45;99358.84;;;4.14;91.41
21449;BME280;10885;52.830;13.788;2023-01-09T07:33:06;99359.22;;;4.21;91.64
21449;BME280;10885;52.830;13.788;2023-01-09T07:38:27;99355.25;;;4.24;91.42
21449;BME280;10885;52.830;13.788;2023-01-09T07:43:48;99350.34;;;4.27;92.01
21449;BME280;10885;52.830;13.788;2023-01-09T07:49:09;99354.06;;;4.32;91.98
21449;BME280;10885;52.830;13.788;2023-01-09T07:54:30;99347.59;;;4.37;92.43
21449;BME280;10885;52.830;13.788;2023-01-09T07:59:51;99348.00;;;4.44;93.04
21449;BME280;10885;52.830;13.788;2023-01-09T08:05:11;99352.84;;;4.54;92.75
21449;BME280;10885;52.830;13.788;2023-01-09T08:10:35;99365.31;;;4.64;93.30
21449;BME280;10885;52.830;13.788;2023-01-09T08:15:56;99371.81;;;4.74;93.37
21449;BME280;10885;52.830;13.788;2023-01-09T08:21:16;99367.50;;;4.86;92.48
21449;BME280;10885;52.830;13.788;2023-01-09T08:26:37;99361.41;;;4.97;92.86
21449;BME280;10885;52.830;13.788;2023-01-09T08:31:58;99358.53;;;5.06;92.28
21449;BME280;10885;52.830;13.788;2023-01-09T08:37:19;99364.31;;;5.18;92.05
21449;BME280;10885;52.830;13.788;2023-01-09T08:42:41;99364.00;;;5.27;93.12
21449;BME280;10885;52.830;13.788;2023-01-09T08:48:20;99368.75;;;5.36;93.52
21449;BME280;10885;52.830;13.788;2023-01-09T08:53:41;99372.84;;;5.34;94.61
21449;BME280;10885;52.830;13.788;2023-01-09T08:59:02;99369.44;;;5.33;95.22
21449;BME280;10885;52.830;13.788;2023-01-09T09:04:23;99368.22;;;5.42;96.70
21449;BME280;10885;52.830;13.788;2023-01-09T09:09:43;99372.50;;;5.43;96.33
21449;BME280;10885;52.830;13.788;2023-01-09T09:15:05;99374.53;;;5.48;97.27
21449;BME280;10885;52.830;13.788;2023-01-09T09:20:34;99380.22;;;5.44;97.10
21449;BME280;10885;52.830;13.788;2023-01-09T09:25:56;99390.59;;;5.47;97.27
21449;BME280;10885;52.830;13.788;2023-01-09T09:31:17;99387.50;;;5.53;96.88
21449;BME280;10885;52.830;13.788;2023-01-09T09:36:38;99393.31;;;5.65;97.40
21449;BME280;10885;52.830;13.788;2023-01-09T09:59:14;99387.31;;;5.65;95.90
21449;BME280;10885;52.830;13.788;2023-01-09T10:04:46;99389.81;;;5.63;96.67
21449;BME280;10885;52.830;13.788;2023-01-09T10:10:15;99386.47;;;5.64;96.67
21449;BME280;10885;52.830;13.788;2023-01-09T10:15:45;99385.59;;;5.64;96.25
21449;BME280;10885;52.830;13.788;2023-01-09T10:21:23;99394.59;;;5.58;96.79
21449;BME280;10885;52.830;13.788;2023-01-09T10:26:48;99397.50;;;5.65;96.66
21449;BME280;10885;52.830;13.788;2023-01-09T10:37:41;99390.22;;;5.86;96.47
21449;BME280;10885;52.830;13.788;2023-01-09T10:43:27;99398.13;;;5.90;96.20
21449;BME280;10885;52.830;13.788;2023-01-09T10:48:54;99403.53;;;5.95;96.02
21449;BME280;10885;52.830;13.788;2023-01-09T10:54:20;99409.97;;;6.05;95.83
21449;BME280;10885;52.830;13.788;2023-01-09T10:59:43;99422.44;;;6.15;95.92
21449;BME280;10885;52.830;13.788;2023-01-09T11:05:04;99419.09;;;6.31;95.65
21449;BME280;10885;52.830;13.788;2023-01-09T11:16:21;99425.13;;;6.64;94.64
21449;BME280;10885;52.830;13.788;2023-01-09T11:21:43;99433.69;;;6.81;93.69
21449;BME280;10885;52.830;13.788;2023-01-09T11:27:20;99429.56;;;6.83;92.75
21449;BME280;10885;52.830;13.788;2023-01-09T11:32:45;99436.66;;;6.89;92.67
21449;BME280;10885;52.830;13.788;2023-01-09T11:38:14;99434.53;;;6.96;92.70
21449;BME280;10885;52.830;13.788;2023-01-09T11:43:37;99446.22;;;6.93;92.49
21449;BME280;10885;52.830;13.788;2023-01-09T11:49:01;99446.78;;;7.04;92.73
21449;BME280;10885;52.830;13.788;2023-01-09T11:54:26;99456.41;;;6.93;93.01
21449;BME280;10885;52.830;13.788;2023-01-09T11:59:48;99465.16;;;6.98;92.70
21449;BME280;10885;52.830;13.788;2023-01-09T12:11:06;99461.50;;;7.09;92.97
21449;BME280;10885;52.830;13.788;2023-01-09T12:16:46;99475.53;;;7.34;91.25
21449;BME280;10885;52.830;13.788;2023-01-09T12:33:41;99480.63;;;7.17;91.17
21449;BME280;10885;52.830;13.788;2023-01-09T12:39:14;99489.78;;;7.14;91.73
21449;BME280;10885;52.830;13.788;2023-01-09T12:45:23;99499.84;;;6.96;91.58
21449;BME280;10885;52.830;13.788;2023-01-09T12:56:25;99501.66;;;7.30;91.05
21449;BME280;10885;52.830;13.788;2023-01-09T13:01:50;99504.19;;;8.12;89.49
21449;BME280;10885;52.830;13.788;2023-01-09T13:07:20;99504.25;;;9.39;82.49
21449;BME280;10885;52.830;13.788;2023-01-09T13:12:43;99493.03;;;9.95;74.12
21449;BME280;10885;52.830;13.788;2023-01-09T13:18:13;99491.50;;;10.01;73.50
21449;BME280;10885;52.830;13.788;2023-01-09T13:29:06;99509.72;;;10.07;72.06
21449;BME280;10885;52.830;13.788;2023-01-09T13:34:31;99520.25;;;10.14;70.11
21449;BME280;10885;52.830;13.788;2023-01-09T13:40:03;99525.75;;;10.03;70.07
21449;BME280;10885;52.830;13.788;2023-01-09T13:45:27;99529.97;;;9.62;71.53
21449;BME280;10885;52.830;13.788;2023-01-09T13:50:48;99539.72;;;9.13;72.29
21449;BME280;10885;52.830;13.788;2023-01-09T13:56:10;99537.41;;;8.64;74.09
21449;BME280;10885;52.830;13.788;2023-01-09T14:12:39;99568.09;;;7.64;77.20
21449;BME280;10885;52.830;13.788;2023-01-09T14:18:22;99583.56;;;7.36;78.17
21449;BME280;10885;52.830;13.788;2023-01-09T14:23:53;99587.34;;;7.11;79.87
21449;BME280;10885;52.830;13.788;2023-01-09T14:34:52;99606.28;;;6.85;79.99
21449;BME280;10885;52.830;13.788;2023-01-09T14:40:21;99628.78;;;6.63;79.77
21449;BME280;10885;52.830;13.788;2023-01-09T14:45:44;99641.84;;;6.54;80.41
21449;BME280;10885;52.830;13.788;2023-01-09T14:51:13;99654.84;;;6.59;81.06
21449;BME280;10885;52.830;13.788;2023-01-09T14:56:44;99666.78;;;6.60;81.38
21449;BME280;10885;52.830;13.788;2023-01-09T15:02:08;99665.28;;;6.63;81.06
21449;BME280;10885;52.830;13.788;2023-01-09T15:07:31;99674.56;;;6.48;81.75
21449;BME280;10885;52.830;13.788;2023-01-09T15:13:02;99692.31;;;6.46;82.37
21449;BME280;10885;52.830;13.788;2023-01-09T15:18:28;99700.63;;;6.44;82.82
21449;BME280;10885;52.830;13.788;2023-01-09T15:23:50;99693.97;;;6.46;83.05
21449;BME280;10885;52.830;13.788;2023-01-09T15:29:14;99699.94;;;6.46;82.80
21449;BME280;10885;52.830;13.788;2023-01-09T15:34:43;99711.69;;;6.44;82.82
21449;BME280;10885;52.830;13.788;2023-01-09T15:40:06;99708.53;;;6.33;82.76
21449;BME280;10885;52.830;13.788;2023-01-09T15:45:39;99708.09;;;6.12;83.44
21449;BME280;10885;52.830;13.788;2023-01-09T15:51:10;99714.75;;;6.10;84.09
21449;BME280;10885;52.830;13.788;2023-01-09T15:56:36;99729.53;;;6.03;84.32
21449;BME280;10885;52.830;13.788;2023-01-09T16:02:02;99735.50;;;5.90;84.43
21449;BME280;10885;52.830;13.788;2023-01-09T16:07:47;99741.31;;;5.87;84.67
21449;BME280;10885;52.830;13.788;2023-01-09T16:13:13;99747.84;;;5.84;85.00
21449;BME280;10885;52.830;13.788;2023-01-09T16:18:37;99753.63;;;5.81;85.75
21449;BME280;10885;52.830;13.788;2023-01-09T16:24:01;99759.50;;;5.80;86.13
21449;BME280;10885;52.830;13.788;2023-01-09T16:29:27;99753.63;;;5.81;86.24
21449;BME280;10885;52.830;13.788;2023-01-09T16:35:15;99745.09;;;5.81;86.85
21449;BME280;10885;52.830;13.788;2023-01-09T16:40:36;99755.97;;;5.78;86.71
21449;BME280;10885;52.830;13.788;2023-01-09T16:45:57;99766.16;;;5.78;86.62
21449;BME280;10885;52.830;13.788;2023-01-09T16:51:20;99765.28;;;5.77;86.81
21449;BME280;10885;52.830;13.788;2023-01-09T16:56:43;99775.81;;;5.84;86.95
21449;BME280;10885;52.830;13.788;2023-01-09T17:02:15;99775.13;;;5.86;87.04
21449;BME280;10885;52.830;13.788;2023-01-09T17:07:37;99776.22;;;5.76;86.84
21449;BME280;10885;52.830;13.788;2023-01-09T17:12:58;99778.69;;;5.75;87.25
21449;BME280;10885;52.830;13.788;2023-01-09T17:18:20;99782.09;;;5.62;87.42
21449;BME280;10885;52.830;13.788;2023-01-09T17:23:41;99789.94;;;5.65;88.91
21449;BME280;10885;52.830;13.788;2023-01-09T17:29:02;99792.06;;;5.59;88.67
21449;BME280;10885;52.830;13.788;2023-01-09T17:34:24;99788.06;;;5.49;88.65
21449;BME280;10885;52.830;13.788;2023-01-09T17:39:45;99776.41;;;5.40;87.85
21449;BME280;10885;52.830;13.788;2023-01-09T17:45:06;99783.72;;;5.22;87.57
21449;BME280;10885;52.830;13.788;2023-01-09T17:50:27;99793.38;;;5.14;88.16
21449;BME280;10885;52.830;13.788;2023-01-09T17:55:53;99793.28;;;4.87;87.79
21449;BME280;10885;52.830;13.788;2023-01-09T18:01:14;99795.78;;;4.74;88.31
21449;BME280;10885;52.830;13.788;2023-01-09T18:06:35;99805.00;;;4.60;88.16
21449;BME280;10885;52.830;13.788;2023-01-09T18:12:12;99804.06;;;4.46;89.44
21449;BME280;10885;52.830;13.788;2023-01-09T18:17:33;99820.28;;;4.36;89.17
21449;BME280;10885;52.830;13.788;2023-01-09T18:22:54;99813.59;;;4.25;89.97
21449;BME280;10885;52.830;13.788;2023-01-09T18:28:16;99818.69;;;4.13;89.52
21449;BME280;10885;52.830;13.788;2023-01-09T18:33:38;99832.28;;;4.02;90.82
21449;BME280;10885;52.830;13.788;2023-01-09T18:39:00;99839.88;;;3.90;90.98
21449;BME280;10885;52.830;13.788;2023-01-09T18:44:21;99847.81;;;3.95;91.51
21449;BME280;10885;52.830;13.788;2023-01-09T18:49:42;99853.13;;;3.98;92.26
21449;BME280;10885;52.830;13.788;2023-01-09T18:55:04;99869.97;;;3.97;91.96
21449;BME280;10885;52.830;13.788;2023-01-09T19:00:25;99872.28;;;4.06;92.11
21449;BME280;10885;52.830;13.788;2023-01-09T19:05:46;99880.66;;;4.17;91.96
21449;BME280;10885;52.830;13.788;2023-01-09T19:11:07;99882.31;;;4.28;92.43
21449;BME280;10885;52.830;13.788;2023-01-09T19:16:28;99896.41;;;4.36;91.12
21449;BME280;10885;52.830;13.788;2023-01-09T19:21:49;99897.94;;;4.46;90.87
21449;BME280;10885;52.830;13.788;2023-01-09T19:27:11;99892.50;;;4.53;90.40
21449;BME280;10885;52.830;13.788;2023-01-09T19:32:32;99894.16;;;4.65;89.96
21449;BME280;10885;52.830;13.788;2023-01-09T19:37:53;99901.47;;;4.60;89.86
21449;BME280;10885;52.830;13.788;2023-01-09T19:43:14;99902.22;;;4.59;89.81
21449;BME280;10885;52.830;13.788;2023-01-09T19:48:46;99904.00;;;4.60;89.86
21449;BME280;10885;52.830;13.788;2023-01-09T19:54:09;99912.91;;;4.67;89.48
21449;BME280;10885;52.830;13.788;2023-01-09T19:59:30;99920.09;;;4.72;88.64
21449;BME280;10885;52.830;13.788;2023-01-09T20:04:51;99923.50;;;4.73;88.61
21449;BME280;10885;52.830;13.788;2023-01-09T20:10:12;99933.09;;;4.77;88.64
21449;BME280;10885;52.830;13.788;2023-01-09T20:15:36;99936.31;;;4.74;89.21
21449;BME280;10885;52.830;13.788;2023-01-09T20:20:57;99936.63;;;4.79;88.38
21449;BME280;10885;52.830;13.788;2023-01-09T20:26:19;99945.13;;;4.80;88.96
21449;BME280;10885;52.830;13.788;2023-01-09T20:31:41;99944.34;;;4.81;88.73
21449;BME280;10885;52.830;13.788;2023-01-09T20:37:02;99934.84;;;4.90;88.38
21449;BME280;10885;52.830;13.788;2023-01-09T20:42:24;99935.94;;;4.93;87.89
21449;BME280;10885;52.830;13.788;2023-01-09T20:47:45;99950.53;;;4.84;87.90
21449;BME280;10885;52.830;13.788;2023-01-09T20:53:06;99955.38;;;4.81;88.32
21449;BME280;10885;52.830;13.788;2023-01-09T20:58:27;99968.50;;;4.75;88.46
21449;BME280;10885;52.830;13.788;2023-01-09T21:03:49;99975.94;;;4.72;88.54
21449;BME280;10885;52.830;13.788;2023-01-09T21:09:10;99983.13;;;4.66;89.77
21449;BME280;10885;52.830;13.788;2023-01-09T21:14:31;99989.31;;;4.58;90.47
21449;BME280;10885;52.830;13.788;2023-01-09T21:19:52;100001.22;;;4.59;90.03
21449;BME280;10885;52.830;13.788;2023-01-09T21:25:13;100004.53;;;4.58;90.15
21449;BME280;10885;52.830;13.788;2023-01-09T21:30:36;100018.44;;;4.63;90.49
21449;BME280;10885;52.830;13.788;2023-01-09T21:35:57;100021.97;;;4.53;90.52
21449;BME280;10885;52.830;13.788;2023-01-09T21:41:19;100029.81;;;4.45;91.17
21449;BME280;10885;52.830;13.788;2023-01-09T21:47:01;100041.03;;;4.36;90.59
21449;BME280;10885;52.830;13.788;2023-01-09T21:52:22;100053.16;;;4.29;91.74
21449;BME280;10885;52.830;13.788;2023-01-09T21:57:45;100069.81;;;4.25;91.43
21449;BME280;10885;52.830;13.788;2023-01-09T22:03:06;100073.69;;;4.20;90.95
21449;BME280;10885;52.830;13.788;2023-01-09T22:08:29;100091.31;;;4.18;92.08
21449;BME280;10885;52.830;13.788;2023-01-09T22:13:50;100097.19;;;4.29;92.21
21449;BME280;10885;52.830;13.788;2023-01-09T22:19:12;100105.59;;;4.40;91.95
21449;BME280;10885;52.830;13.788;2023-01-09T22:24:35;100119.19;;;4.52;91.88
21449;BME280;10885;52.830;13.788;2023-01-09T22:29:56;100122.63;;;4.65;92.13
21449;BME280;10885;52.830;13.788;2023-01-09T22:35:17;100133.91;;;4.68;91.30
21449;BME280;10885;52.830;13.788;2023-01-09T22:40:38;100143.25;;;4.69;90.59
